Time;durP1;ratioP1;P1;durP2;ratioP2;P2;SDS_P1;SDS_P2;PMS_P1;PMS_P2;Temp;Humidity;BMP_temperature;BMP_pressure;BME280_temperature;BME280_humidity;BME280_pressure;Samples;Min_cycle;Max_cycle;Signal;HPM_P1;HPM_P2
2024/04/22 00:01:47;;;;;;;3.50;1.50;;;6.30;82.10;;;;;;5418102;26;20007;-76
2024/04/22 00:04:13;;;;;;;2.80;1.20;;;6.30;82.20;;;;;;5417598;26;20432;-77
2024/04/22 00:06:43;;;;;;;5.00;2.00;;;6.30;82.20;;;;;;5418043;26;20003;-77
2024/04/22 00:09:09;;;;;;;3.90;1.73;;;6.30;82.50;;;;;;5447554;26;20014;-76
2024/04/22 00:11:35;;;;;;;3.63;1.70;;;6.30;82.50;;;;;;5419761;26;19999;-77
2024/04/22 00:14:00;;;;;;;4.60;1.90;;;6.30;82.40;;;;;;5447507;26;20014;-77
2024/04/22 00:16:26;;;;;;;3.47;1.27;;;6.20;82.40;;;;;;5419414;26;20000;-76
2024/04/22 00:18:52;;;;;;;3.60;1.63;;;6.20;82.50;;;;;;5447413;26;20058;-77
2024/04/22 00:21:17;;;;;;;4.00;1.83;;;6.20;82.50;;;;;;5417597;26;20000;-77
2024/04/22 00:23:43;;;;;;;3.17;1.47;;;6.10;82.60;;;;;;5419613;26;20351;-77
2024/04/22 00:26:08;;;;;;;4.47;1.70;;;6.10;82.70;;;;;;5447813;26;20014;-76
2024/04/22 00:28:34;;;;;;;3.30;1.83;;;6.00;82.80;;;;;;5447464;26;20000;-77
2024/04/22 00:31:00;;;;;;;4.13;1.97;;;6.00;82.80;;;;;;5447453;26;20029;-77
2024/04/22 00:33:25;;;;;;;4.13;1.70;;;5.90;82.90;;;;;;5419377;26;20000;-77
2024/04/22 00:35:55;;;;;;;3.00;1.43;;;5.90;83.00;;;;;;5447055;26;20035;-76
2024/04/22 00:38:21;;;;;;;4.73;1.57;;;5.80;83.10;;;;;;5419359;26;20007;-77
2024/04/22 00:40:46;;;;;;;5.43;1.73;;;5.80;83.20;;;;;;5417352;26;20008;-77
2024/04/22 00:43:12;;;;;;;4.90;1.90;;;5.70;83.30;;;;;;5417476;26;20070;-77
2024/04/22 00:45:38;;;;;;;3.47;1.47;;;5.70;83.40;;;;;;5418860;26;20015;-77
2024/04/22 00:48:04;;;;;;;5.53;1.83;;;5.70;83.60;;;;;;5418907;26;20014;-76
2024/04/22 00:50:30;;;;;;;4.70;2.37;;;5.60;83.80;;;;;;5419100;26;20003;-76
2024/04/22 00:52:58;;;;;;;5.10;1.37;;;5.60;83.90;;;;;;5418920;26;20078;-77
2024/04/22 00:55:25;;;;;;;3.20;1.33;;;5.60;84.00;;;;;;5447404;26;20039;-77
2024/04/22 00:57:56;;;;;;;4.30;1.77;;;5.60;84.30;;;;;;5418826;26;20000;-77
2024/04/22 01:00:23;;;;;;;4.30;1.97;;;5.60;84.40;;;;;;5419140;26;19996;-77
2024/04/22 01:02:50;;;;;;;4.00;1.73;;;5.60;84.50;;;;;;5416820;26;20431;-77
2024/04/22 01:05:16;;;;;;;4.43;1.87;;;5.60;84.60;;;;;;5418791;26;20000;-77
2024/04/22 01:07:42;;;;;;;3.23;1.53;;;5.60;84.70;;;;;;5418515;26;20003;-79
2024/04/22 01:10:08;;;;;;;5.40;1.70;;;5.60;84.90;;;;;;5447264;26;20002;-78
2024/04/22 01:12:34;;;;;;;4.13;1.90;;;5.60;85.00;;;;;;5418750;26;20010;-79
2024/04/22 01:14:59;;;;;;;4.00;1.83;;;5.60;85.10;;;;;;5418521;26;20035;-79
2024/04/22 01:17:40;;;;;;;3.70;1.70;;;5.60;85.20;;;;;;5418256;26;20000;-79
2024/04/22 01:20:10;;;;;;;4.63;1.77;;;5.50;85.30;;;;;;5416964;26;20000;-79
2024/04/22 01:22:35;;;;;;;3.83;1.70;;;5.50;85.30;;;;;;5418341;26;20439;-79
2024/04/22 01:25:05;;;;;;;3.70;1.60;;;5.50;85.40;;;;;;5446818;26;20330;-80
2024/04/22 01:27:32;;;;;;;3.67;1.60;;;5.50;85.50;;;;;;5416782;26;19999;-79
2024/04/22 01:30:02;;;;;;;4.33;1.50;;;5.40;85.60;;;;;;5446687;26;20003;-79
2024/04/22 01:32:28;;;;;;;5.07;2.20;;;5.40;85.70;;;;;;5446182;26;20007;-79
2024/04/22 01:34:59;;;;;;;4.63;2.13;;;5.40;85.90;;;;;;5418139;26;20448;-79
2024/04/22 01:37:25;;;;;;;4.10;1.90;;;5.20;85.80;;;;;;5418568;26;20006;-79
2024/04/22 01:39:51;;;;;;;4.50;1.80;;;5.30;86.00;;;;;;5447075;26;20020;-79
2024/04/22 01:42:16;;;;;;;5.67;2.70;;;5.30;86.10;;;;;;5416529;26;20006;-80
2024/04/22 01:44:42;;;;;;;4.47;1.90;;;5.20;86.20;;;;;;5446361;26;20003;-77
2024/04/22 01:47:08;;;;;;;3.83;1.80;;;5.20;86.30;;;;;;5418494;26;20003;-77
2024/04/22 01:49:33;;;;;;;4.47;1.77;;;5.10;87.00;;;;;;5446348;26;20047;-77
2024/04/22 01:51:59;;;;;;;7.30;2.00;;;5.10;86.40;;;;;;5418383;26;20512;-77
2024/04/22 01:54:25;;;;;;;5.10;2.07;;;5.10;86.50;;;;;;5418028;26;20000;-77
2024/04/22 01:56:50;;;;;;;4.70;1.83;;;5.00;86.60;;;;;;5417447;26;20005;-76
2024/04/22 01:59:16;;;;;;;3.80;1.87;;;5.00;86.60;;;;;;5417723;26;20015;-77
2024/04/22 02:01:43;;;;;;;5.13;2.03;;;5.00;86.60;;;;;;5415925;26;20003;-76
2024/04/22 02:04:09;;;;;;;4.77;2.30;;;4.90;86.70;;;;;;5418647;26;20450;-77
2024/04/22 02:06:35;;;;;;;4.73;1.87;;;5.00;86.90;;;;;;5418608;26;20003;-76
2024/04/22 02:09:01;;;;;;;5.53;1.90;;;4.90;86.90;;;;;;5445684;26;20003;-77
2024/04/22 02:11:26;;;;;;;3.77;1.87;;;4.90;87.00;;;;;;5415934;26;20440;-77
2024/04/22 02:13:52;;;;;;;4.20;2.07;;;4.90;87.10;;;;;;5418165;26;19999;-76
2024/04/22 02:16:18;;;;;;;3.73;1.87;;;4.90;87.20;;;;;;5417605;26;20003;-77
2024/04/22 02:18:44;;;;;;;4.47;1.80;;;4.90;87.40;;;;;;5416505;26;20088;-77
2024/04/22 02:21:10;;;;;;;4.97;2.00;;;4.90;87.50;;;;;;5416111;26;20031;-77
2024/04/22 02:23:35;;;;;;;6.00;2.40;;;4.80;87.60;;;;;;5418199;26;20419;-76
2024/04/22 02:26:02;;;;;;;4.60;2.57;;;4.80;87.70;;;;;;5418075;26;20000;-77
2024/04/22 02:28:28;;;;;;;6.10;2.27;;;4.80;87.80;;;;;;5446073;26;19995;-76
2024/04/22 02:30:54;;;;;;;5.80;2.23;;;4.80;88.00;;;;;;5418007;26;20034;-77
2024/04/22 02:33:20;;;;;;;4.57;2.17;;;4.80;88.10;;;;;;5445894;26;20010;-77
2024/04/22 02:35:45;;;;;;;6.57;2.30;;;4.80;88.80;;;;;;5416235;26;20022;-77
2024/04/22 02:38:11;;;;;;;5.03;2.60;;;4.70;88.20;;;;;;5417853;26;20000;-77
2024/04/22 02:40:36;;;;;;;3.67;1.87;;;4.80;88.40;;;;;;5417466;26;20508;-80
2024/04/22 02:43:02;;;;;;;7.17;1.90;;;4.70;88.40;;;;;;5415761;26;20015;-79
2024/04/22 02:45:28;;;;;;;4.77;1.90;;;4.70;88.40;;;;;;5445224;26;19995;-79
2024/04/22 02:47:53;;;;;;;6.80;2.70;;;4.70;88.60;;;;;;5417833;26;20011;-79
2024/04/22 02:50:19;;;;;;;5.97;2.50;;;4.60;88.70;;;;;;5445344;26;20448;-79
2024/04/22 02:52:45;;;;;;;6.07;2.57;;;4.70;88.70;;;;;;5417598;26;20068;-79
2024/04/22 02:55:10;;;;;;;7.43;2.63;;;4.70;88.70;;;;;;5417291;26;20013;-78
2024/04/22 02:57:36;;;;;;;5.37;2.17;;;4.50;88.80;;;;;;5417856;26;20003;-79
2024/04/22 03:00:04;;;;;;;4.57;2.33;;;4.60;89.00;;;;;;5416891;26;20466;-79
2024/04/22 03:02:30;;;;;;;5.67;2.57;;;4.50;89.00;;;;;;5416927;26;20007;-79
2024/04/22 03:04:55;;;;;;;5.50;2.70;;;4.50;89.10;;;;;;5445119;26;20381;-79
2024/04/22 03:07:21;;;;;;;5.23;2.47;;;4.50;90.00;;;;;;5417023;26;19999;-79
2024/04/22 03:09:47;;;;;;;5.90;2.50;;;4.50;89.50;;;;;;5416952;26;20007;-78
2024/04/22 03:12:13;;;;;;;4.73;2.50;;;4.40;89.50;;;;;;5420434;26;20049;-78
2024/04/22 03:14:39;;;;;;;5.30;2.53;;;4.50;89.70;;;;;;5420064;26;20027;-78
2024/04/22 03:17:05;;;;;;;4.97;2.47;;;4.40;89.80;;;;;;5420507;26;20072;-78
2024/04/22 03:19:31;;;;;;;5.23;2.50;;;4.40;89.90;;;;;;5448586;26;20015;-78
2024/04/22 03:21:57;;;;;;;5.10;2.20;;;4.40;90.00;;;;;;5448625;26;20004;-78
2024/04/22 03:24:23;;;;;;;6.47;2.70;;;4.50;90.10;;;;;;5448217;26;20015;-78
2024/04/22 03:26:48;;;;;;;7.30;2.57;;;4.50;90.10;;;;;;5420298;26;20031;-78
2024/04/22 03:29:16;;;;;;;6.27;2.60;;;4.50;90.10;;;;;;5448066;26;19999;-79
2024/04/22 03:31:41;;;;;;;5.67;2.67;;;4.40;90.10;;;;;;5448497;26;20004;-79
2024/04/22 03:34:08;;;;;;;6.90;2.50;;;4.50;90.20;;;;;;5417917;26;20000;-79
2024/04/22 03:36:34;;;;;;;5.80;2.23;;;4.50;90.30;;;;;;5418482;26;20014;-78
2024/04/22 03:38:59;;;;;;;6.97;1.93;;;4.40;90.20;;;;;;5419957;26;20000;-78
2024/04/22 03:41:27;;;;;;;6.03;2.47;;;4.40;90.20;;;;;;5419875;26;20012;-78
2024/04/22 03:43:55;;;;;;;4.60;2.20;;;4.40;90.20;;;;;;5420212;26;19999;-78
2024/04/22 03:51:50;;;;;;;3.78;2.28;;;4.30;90.30;;;;;;5419989;26;20011;-78
2024/04/22 03:54:15;;;;;;;4.90;2.50;;;4.30;90.30;;;;;;5417920;26;19996;-78
2024/04/22 03:56:41;;;;;;;5.40;2.40;;;4.30;90.30;;;;;;5419508;26;20462;-78
2024/04/22 03:59:07;;;;;;;4.47;2.07;;;4.30;90.40;;;;;;5419851;26;20366;-78
2024/04/22 04:01:33;;;;;;;4.33;2.60;;;4.30;90.40;;;;;;5419735;26;20340;-78
2024/04/22 04:03:59;;;;;;;5.40;2.47;;;4.30;90.40;;;;;;5417796;26;20031;-78
2024/04/22 04:06:28;;;;;;;4.67;2.53;;;4.20;90.50;;;;;;5419834;26;20351;-79
2024/04/22 04:08:53;;;;;;;6.70;2.30;;;4.20;90.50;;;;;;5419075;26;20010;-79
2024/04/22 04:11:23;;;;;;;5.10;2.50;;;4.20;90.60;;;;;;5417210;26;19995;-77
2024/04/22 04:13:49;;;;;;;5.80;2.53;;;4.20;90.60;;;;;;5419844;26;20003;-78
2024/04/22 04:16:15;;;;;;;6.47;2.73;;;4.20;90.60;;;;;;5419581;26;20072;-80
2024/04/22 04:18:41;;;;;;;6.33;2.40;;;4.20;90.60;;;;;;5419507;26;20031;-81
2024/04/22 04:21:07;;;;;;;5.20;2.33;;;4.10;90.60;;;;;;5418397;26;19999;-81
2024/04/22 04:23:33;;;;;;;7.00;2.60;;;4.20;90.70;;;;;;5447408;26;20006;-81
2024/04/22 04:25:58;;;;;;;4.60;2.20;;;4.10;90.70;;;;;;5447528;26;20007;-81
2024/04/22 04:28:25;;;;;;;5.20;2.67;;;4.10;90.70;;;;;;5447655;26;20448;-82
2024/04/22 04:30:58;;;;;;;5.27;2.53;;;4.10;90.80;;;;;;5447514;26;20003;-82
2024/04/22 04:33:24;;;;;;;5.80;2.78;;;4.10;90.90;;;;;;5447090;26;20000;-82
2024/04/22 04:36:03;;;;;;;4.13;2.23;;;4.10;91.20;;;;;;5419740;26;20011;-78
2024/04/22 04:38:30;;;;;;;5.23;2.30;;;4.00;91.00;;;;;;5419215;26;20010;-78
2024/04/22 04:40:55;;;;;;;5.17;2.47;;;4.00;91.00;;;;;;5447264;26;20011;-78
2024/04/22 04:43:21;;;;;;;7.20;2.47;;;4.00;91.00;;;;;;5418907;26;20009;-78
2024/04/22 04:45:47;;;;;;;6.37;2.60;;;4.10;91.10;;;;;;5419215;26;20000;-77
2024/04/22 04:48:13;;;;;;;6.00;2.80;;;4.00;91.20;;;;;;5417181;26;20002;-78
2024/04/22 04:50:39;;;;;;;4.13;2.13;;;4.00;91.20;;;;;;5419082;26;20049;-77
2024/04/22 04:53:05;;;;;;;4.67;2.40;;;4.00;91.20;;;;;;5418753;26;20028;-77
2024/04/22 04:55:31;;;;;;;5.27;2.60;;;4.00;91.30;;;;;;5416767;26;20011;-79
2024/04/22 04:57:58;;;;;;;8.87;3.20;;;4.10;91.40;;;;;;5416915;26;19999;-78
2024/04/22 05:00:23;;;;;;;4.47;2.47;;;4.10;91.50;;;;;;5416642;26;20003;-79
2024/04/22 05:02:49;;;;;;;6.47;2.83;;;4.10;91.50;;;;;;5419149;26;20423;-79
2024/04/22 05:05:15;;;;;;;5.43;2.57;;;4.10;91.60;;;;;;5418579;26;20003;-80
2024/04/22 05:07:41;;;;;;;4.17;2.10;;;4.10;91.60;;;;;;5416447;26;20011;-79
2024/04/22 05:10:07;;;;;;;3.83;2.00;;;4.20;91.70;;;;;;5418480;26;20011;-79
2024/04/22 05:12:32;;;;;;;5.07;2.37;;;4.20;91.70;;;;;;5418884;26;20011;-80
2024/04/22 05:14:58;;;;;;;4.70;2.17;;;4.20;91.80;;;;;;5418702;26;20371;-79
2024/04/22 05:17:23;;;;;;;6.03;2.60;;;4.20;91.80;;;;;;5416860;26;20015;-80
2024/04/22 05:19:49;;;;;;;5.90;2.33;;;4.20;91.90;;;;;;5446438;26;20068;-79
2024/04/22 05:22:15;;;;;;;4.07;2.00;;;4.30;91.90;;;;;;5418812;26;20000;-79
2024/04/22 05:24:40;;;;;;;6.17;2.00;;;4.30;91.90;;;;;;5416590;26;20455;-79
2024/04/22 05:27:06;;;;;;;3.87;1.90;;;4.40;92.00;;;;;;5416671;26;20011;-79
2024/04/22 05:29:32;;;;;;;5.07;2.50;;;4.40;92.00;;;;;;5416430;26;20000;-79
2024/04/22 05:31:58;;;;;;;5.00;2.17;;;4.50;92.10;;;;;;5415156;26;20022;-80
2024/04/22 05:37:08;;;;;;;;;;;4.50;92.20;;;;;;5413726;26;20468;-81
2024/04/22 05:39:34;;;;;;;6.37;2.30;;;4.70;92.20;;;;;;5417387;26;19925;-81
2024/04/22 05:41:59;;;;;;;3.73;2.17;;;4.70;92.20;;;;;;5419512;26;20018;-82
2024/04/22 05:44:25;;;;;;;3.60;1.87;;;4.70;92.20;;;;;;5448541;26;20482;-81
2024/04/22 05:46:50;;;;;;;4.87;2.00;;;4.70;92.20;;;;;;5418680;26;20011;-81
2024/04/22 05:49:16;;;;;;;4.73;2.43;;;4.80;92.30;;;;;;5446537;26;20505;-81
2024/04/22 05:51:42;;;;;;;5.73;2.33;;;4.90;92.40;;;;;;5446499;26;20013;-80
2024/04/22 05:54:09;;;;;;;4.23;1.80;;;5.00;92.40;;;;;;5445959;26;20004;-79
2024/04/22 05:56:35;;;;;;;6.00;1.90;;;5.10;92.40;;;;;;5418900;26;20004;-79
2024/04/22 05:59:01;;;;;;;7.30;2.20;;;5.10;92.40;;;;;;5417021;26;20342;-80
2024/04/22 06:01:27;;;;;;;5.53;2.20;;;5.10;92.40;;;;;;5417305;26;20000;-80
2024/04/22 06:03:54;;;;;;;5.00;2.43;;;5.20;92.40;;;;;;5416160;26;20039;-78
2024/04/22 06:06:19;;;;;;;6.13;2.73;;;5.20;92.70;;;;;;5415869;26;20370;-80
2024/04/22 06:08:45;;;;;;;7.00;2.50;;;5.30;92.50;;;;;;5415941;26;20003;-79
2024/04/22 06:11:11;;;;;;;5.00;2.63;;;5.30;92.40;;;;;;5417322;26;20073;-82
2024/04/22 06:13:36;;;;;;;4.97;2.10;;;5.30;92.40;;;;;;5418039;26;20072;-82
2024/04/22 06:16:02;;;;;;;4.03;2.27;;;5.40;92.30;;;;;;5417786;26;20003;-81
2024/04/22 06:18:28;;;;;;;6.13;2.93;;;5.40;92.30;;;;;;5413816;26;20435;-81
2024/04/22 06:20:53;;;;;;;5.23;2.47;;;5.50;92.40;;;;;;5416920;26;20000;-81
2024/04/22 06:23:19;;;;;;;4.87;2.23;;;5.60;92.50;;;;;;5443223;26;19995;-82
2024/04/22 06:25:45;;;;;;;4.60;2.03;;;5.60;92.50;;;;;;5414397;26;20007;-84
2024/04/22 06:28:11;;;;;;;3.47;1.80;;;5.60;92.60;;;;;;5414739;26;20011;-81
2024/04/22 06:30:36;;;;;;;7.00;2.47;;;5.80;92.70;;;;;;5417088;26;20006;-81
2024/04/22 06:33:02;;;;;;;5.07;2.17;;;5.80;92.70;;;;;;5417166;26;20004;-80
2024/04/22 06:35:28;;;;;;;7.20;2.13;;;5.90;92.70;;;;;;5416534;26;20077;-81
2024/04/22 06:37:54;;;;;;;4.47;2.07;;;6.00;92.70;;;;;;5416791;26;20459;-80
2024/04/22 06:40:21;;;;;;;5.77;2.03;;;6.10;92.80;;;;;;5415717;26;20067;-81
2024/04/22 06:42:57;;;;;;;6.30;2.10;;;6.20;92.70;;;;;;5416401;26;20007;-82
2024/04/22 06:45:24;;;;;;;5.97;2.10;;;6.30;92.80;;;;;;5415641;26;19999;-79
2024/04/22 06:47:50;;;;;;;6.10;2.33;;;6.40;92.80;;;;;;5416443;26;20079;-80
2024/04/22 06:50:16;;;;;;;4.17;2.07;;;6.50;92.80;;;;;;5414409;26;20011;-80
2024/04/22 06:52:42;;;;;;;5.63;2.50;;;6.60;92.80;;;;;;5443892;26;20032;-81
2024/04/22 06:55:09;;;;;;;4.63;2.00;;;6.80;92.80;;;;;;5414210;26;20003;-79
2024/04/22 06:57:35;;;;;;;5.30;1.90;;;6.90;92.80;;;;;;5413985;26;20401;-80
2024/04/22 07:00:00;;;;;;;5.30;2.40;;;7.10;92.70;;;;;;5414215;26;20008;-80
2024/04/22 07:02:26;;;;;;;5.43;2.30;;;7.10;92.70;;;;;;5415895;26;20011;-80
2024/04/22 07:04:52;;;;;;;5.37;2.37;;;7.20;92.70;;;;;;5415703;26;20014;-80
2024/04/22 07:07:18;;;;;;;4.83;2.03;;;7.30;92.60;;;;;;5414927;26;20470;-80
2024/04/22 07:09:44;;;;;;;6.60;2.03;;;7.50;92.60;;;;;;5416302;26;20455;-80
2024/04/22 07:12:09;;;;;;;5.37;1.63;;;7.60;92.50;;;;;;5415836;26;20010;-79
2024/04/22 07:14:35;;;;;;;6.40;1.93;;;7.60;92.30;;;;;;5413434;26;20003;-80
2024/04/22 07:17:01;;;;;;;4.40;2.20;;;7.70;92.10;;;;;;5416018;26;20014;-79
2024/04/22 07:19:26;;;;;;;4.43;2.27;;;7.80;92.00;;;;;;5415837;26;20466;-80
2024/04/22 07:21:52;;;;;;;4.00;1.67;;;7.90;91.80;;;;;;5415758;26;19999;-80
2024/04/22 07:24:17;;;;;;;4.33;1.70;;;7.90;91.60;;;;;;5415783;26;20022;-79
2024/04/22 07:26:43;;;;;;;3.60;1.67;;;8.00;91.40;;;;;;5415954;26;20003;-80
2024/04/22 07:29:09;;;;;;;6.87;2.20;;;8.10;91.00;;;;;;5416502;26;20018;-80
2024/04/22 07:31:35;;;;;;;3.77;1.70;;;8.20;90.80;;;;;;5416389;26;20077;-79
2024/04/22 07:34:00;;;;;;;4.10;2.13;;;8.20;90.80;;;;;;5416026;26;20032;-80
2024/04/22 07:36:29;;;;;;;4.00;1.30;;;8.30;90.70;;;;;;5413834;26;20014;-79
2024/04/22 07:39:00;;;;;;;4.00;1.57;;;8.40;90.60;;;;;;5416522;26;20000;-80
2024/04/22 07:41:27;;;;;;;3.77;1.10;;;8.50;90.50;;;;;;5415655;26;20019;-79
2024/04/22 07:43:53;;;;;;;2.87;1.10;;;8.60;90.40;;;;;;5414293;26;19999;-80
2024/04/22 07:46:18;;;;;;;2.50;1.37;;;8.70;90.30;;;;;;5416250;26;20053;-81
2024/04/22 07:48:44;;;;;;;3.83;1.47;;;8.80;90.10;;;;;;5416032;26;20078;-80
2024/04/22 07:51:10;;;;;;;3.63;1.67;;;8.90;90.10;;;;;;5414201;26;20401;-80
2024/04/22 07:53:36;;;;;;;3.83;1.20;;;9.00;89.90;;;;;;5415889;26;20459;-80
2024/04/22 07:56:02;;;;;;;4.90;1.07;;;9.10;89.60;;;;;;5417677;26;20018;-80
2024/04/22 07:58:28;;;;;;;3.23;1.10;;;9.20;89.30;;;;;;5418094;26;20350;-80
2024/04/22 08:00:55;;;;;;;1.87;0.90;;;9.30;88.90;;;;;;5447890;26;20454;-82
2024/04/22 08:03:22;;;;;;;4.50;1.43;;;9.40;88.60;;;;;;5419107;26;20032;-80
2024/04/22 08:05:49;;;;;;;2.40;0.90;;;9.50;88.00;;;;;;5418326;26;20011;-78
2024/04/22 08:08:18;;;;;;;3.67;1.15;;;9.60;86.80;;;;;;5419492;26;20459;-81
2024/04/22 08:10:44;;;;;;;2.93;1.13;;;9.60;86.60;;;;;;5419730;26;20018;-80
2024/04/22 08:13:10;;;;;;;2.07;1.00;;;9.70;85.90;;;;;;5448011;26;20455;-80
2024/04/22 08:15:35;;;;;;;2.93;0.90;;;9.70;85.30;;;;;;5419247;26;20011;-81
2024/04/22 08:18:01;;;;;;;4.20;1.10;;;9.70;84.60;;;;;;5419198;26;20000;-82
2024/04/22 08:20:27;;;;;;;3.08;1.00;;;9.80;85.10;;;;;;5418555;26;19999;-78
2024/04/22 08:22:52;;;;;;;2.47;0.90;;;9.90;84.90;;;;;;5416999;26;20054;-81
2024/04/22 08:25:18;;;;;;;3.63;1.00;;;9.90;84.70;;;;;;5416134;26;20023;-80
2024/04/22 08:27:44;;;;;;;2.95;1.00;;;10.00;84.70;;;;;;5415252;26;20007;-81
2024/04/22 08:30:10;;;;;;;3.20;0.90;;;10.00;84.00;;;;;;5416586;26;20000;-81
2024/04/22 08:32:36;;;;;;;2.92;0.75;;;10.10;84.10;;;;;;5415005;26;19996;-79
2024/04/22 08:35:03;;;;;;;2.95;1.02;;;10.20;83.90;;;;;;5418183;26;20692;-81
2024/04/22 08:37:29;;;;;;;5.67;1.20;;;10.30;83.50;;;;;;5414353;26;20000;-81
2024/04/22 08:39:54;;;;;;;4.78;0.80;;;10.40;82.80;;;;;;5418905;26;20072;-81
2024/04/22 08:42:24;;;;;;;2.88;0.60;;;10.50;82.90;;;;;;5419161;26;20451;-79
2024/04/22 08:44:50;;;;;;;3.08;0.93;;;10.60;82.70;;;;;;5418497;26;20405;-81
2024/04/22 08:47:16;;;;;;;4.50;0.90;;;10.70;82.10;;;;;;5417089;26;19996;-80
2024/04/22 08:49:42;;;;;;;3.17;0.63;;;10.80;81.50;;;;;;5418697;26;20067;-79
2024/04/22 08:52:08;;;;;;;2.83;0.60;;;10.90;81.20;;;;;;5419050;26;19999;-80
2024/04/22 08:54:35;;;;;;;3.15;1.00;;;10.90;80.90;;;;;;5418500;26;19995;-78
2024/04/22 08:57:01;;;;;;;4.75;0.90;;;11.00;80.40;;;;;;5387714;26;19997;-79
2024/04/22 08:59:27;;;;;;;2.00;0.60;;;11.10;80.20;;;;;;5447137;26;19995;-79
2024/04/22 09:02:03;;;;;;;3.63;0.70;;;11.20;79.30;;;;;;5417686;26;20076;-79
2024/04/22 09:04:29;;;;;;;6.65;0.70;;;11.20;77.80;;;;;;5416928;26;20020;-79
2024/04/22 09:06:55;;;;;;;2.63;0.80;;;11.30;77.20;;;;;;5446809;26;20467;-79
2024/04/22 09:09:22;;;;;;;3.97;0.70;;;11.40;77.20;;;;;;5416739;26;20035;-79
2024/04/22 09:11:54;;;;;;;2.78;0.98;;;11.40;76.80;;;;;;5418639;26;20058;-80
2024/04/22 09:14:20;;;;;;;3.38;0.80;;;11.50;76.70;;;;;;5416710;26;20003;-78
2024/04/22 09:16:46;;;;;;;3.33;0.95;;;11.50;76.40;;;;;;5418274;26;20023;-79
2024/04/22 09:19:25;;;;;;;3.95;0.73;;;11.60;75.40;;;;;;5418720;26;20443;-79
2024/04/22 09:21:52;;;;;;;1.60;0.70;;;11.70;75.20;;;;;;5416786;26;20027;-80
2024/04/22 09:24:18;;;;;;;3.20;0.75;;;11.70;74.80;;;;;;5418845;26;20014;-80
2024/04/22 09:26:44;;;;;;;1.85;0.50;;;11.80;74.30;;;;;;5417601;26;19999;-80
2024/04/22 09:29:17;;;;;;;3.00;0.73;;;11.90;74.60;;;;;;5417859;26;20031;-81
2024/04/22 09:31:46;;;;;;;2.28;0.70;;;12.00;74.40;;;;;;5414666;26;20462;-81
2024/04/22 09:34:13;;;;;;;2.75;0.93;;;12.10;74.20;;;;;;5417980;26;20007;-80
2024/04/22 09:36:46;;;;;;;2.17;0.60;;;12.20;73.30;;;;;;5417593;26;20014;-81
2024/04/22 09:39:12;;;;;;;3.75;0.60;;;12.20;73.30;;;;;;5416458;26;20486;-81
2024/04/22 09:41:41;;;;;;;3.38;0.60;;;12.30;73.50;;;;;;5418148;26;20076;-81
2024/04/22 09:44:07;;;;;;;3.25;0.77;;;12.40;73.40;;;;;;5417357;26;20077;-82
2024/04/22 09:46:36;;;;;;;3.42;0.70;;;12.40;72.90;;;;;;5416309;26;20024;-81
2024/04/22 09:49:04;;;;;;;1.92;0.50;;;12.50;72.00;;;;;;5416447;26;19996;-81
2024/04/22 09:51:33;;;;;;;3.55;0.63;;;12.40;72.10;;;;;;5418152;26;19999;-82
2024/04/22 09:53:59;;;;;;;2.22;0.50;;;12.50;71.40;;;;;;5416014;26;20003;-82
2024/04/22 09:56:31;;;;;;;3.00;0.60;;;12.50;71.80;;;;;;5418012;26;20531;-81
2024/04/22 09:59:00;;;;;;;2.88;0.70;;;12.50;71.80;;;;;;5418471;26;20124;-79
2024/04/22 10:01:25;;;;;;;2.05;0.50;;;12.50;71.90;;;;;;5418006;26;19999;-80
2024/04/22 10:03:51;;;;;;;1.67;0.55;;;12.60;71.80;;;;;;5417617;26;20000;-81
2024/04/22 10:06:18;;;;;;;1.90;0.55;;;12.60;71.20;;;;;;5416137;26;20011;-80
2024/04/22 10:08:47;;;;;;;3.88;0.60;;;12.50;70.60;;;;;;5417577;26;20011;-79
2024/04/22 10:11:12;;;;;;;4.28;0.70;;;12.50;70.20;;;;;;5416164;26;20023;-79
2024/04/22 10:13:38;;;;;;;2.47;0.90;;;12.30;69.80;;;;;;5417617;26;20006;-80
2024/04/22 10:16:04;;;;;;;4.05;0.95;;;12.10;70.40;;;;;;5417801;26;19999;-82
2024/04/22 10:18:30;;;;;;;6.30;1.25;;;12.00;70.90;;;;;;5414917;26;20003;-80
2024/04/22 10:21:03;;;;;;;2.63;0.70;;;11.90;71.30;;;;;;5417618;26;20056;-81
2024/04/22 10:23:29;;;;;;;2.50;0.68;;;11.90;71.70;;;;;;5410116;26;20014;-82
2024/04/22 10:25:54;;;;;;;4.93;1.05;;;11.80;71.90;;;;;;5417190;26;20003;-81
2024/04/22 10:28:20;;;;;;;3.05;0.75;;;11.90;72.30;;;;;;5416542;26;19995;-81
2024/04/22 10:30:46;;;;;;;3.05;0.75;;;11.90;72.40;;;;;;5417359;26;20003;-81
2024/04/22 10:33:11;;;;;;;6.07;0.80;;;12.10;72.30;;;;;;5445394;26;20075;-81
2024/04/22 10:35:38;;;;;;;5.05;1.05;;;12.30;72.40;;;;;;5417920;26;20443;-81
2024/04/22 10:38:03;;;;;;;3.88;0.57;;;12.40;71.90;;;;;;5417075;26;20400;-81
2024/04/22 10:40:29;;;;;;;2.85;0.80;;;12.60;71.80;;;;;;5416935;26;20019;-81
2024/04/22 10:42:55;;;;;;;3.35;0.80;;;12.70;72.00;;;;;;5411418;26;19999;-79
2024/04/22 10:45:21;;;;;;;1.42;0.40;;;12.80;71.60;;;;;;5417181;26;20007;-78
2024/04/22 10:47:47;;;;;;;2.70;0.93;;;12.90;70.30;;;;;;5416984;26;20094;-81
2024/04/22 10:50:16;;;;;;;2.13;0.60;;;12.90;68.50;;;;;;5417318;26;20014;-79
2024/04/22 10:52:44;;;;;;;2.60;0.80;;;12.90;68.80;;;;;;5417898;26;20003;-81
2024/04/22 10:55:10;;;;;;;5.30;0.90;;;12.80;68.30;;;;;;5413808;26;20047;-78
2024/04/22 10:57:36;;;;;;;3.60;0.88;;;12.80;66.70;;;;;;5407311;26;20010;-79
2024/04/22 11:00:03;;;;;;;4.45;0.90;;;12.70;62.00;;;;;;5410825;26;20008;-80
2024/04/22 11:02:29;;;;;;;3.80;0.90;;;12.60;62.80;;;;;;5416097;26;20462;-80
2024/04/22 11:04:55;;;;;;;3.20;1.02;;;12.50;61.60;;;;;;5414086;26;19999;-80
2024/04/22 11:07:23;;;;;;;3.40;1.15;;;12.40;60.50;;;;;;5444445;26;20003;-79
2024/04/22 11:09:50;;;;;;;4.88;0.88;;;12.30;61.90;;;;;;5416393;26;20072;-80
2024/04/22 11:12:17;;;;;;;2.33;0.90;;;12.20;61.90;;;;;;5413189;26;20011;-80
2024/04/22 11:14:43;;;;;;;2.40;0.60;;;12.10;62.60;;;;;;5414129;26;19999;-79
2024/04/22 11:17:12;;;;;;;3.97;0.70;;;12.10;62.10;;;;;;5414123;26;20010;-80
2024/04/22 11:19:38;;;;;;;1.85;0.80;;;12.10;61.50;;;;;;5413936;26;20338;-80
2024/04/22 11:22:06;;;;;;;2.38;0.57;;;12.10;61.40;;;;;;5443898;26;20011;-79
2024/04/22 11:24:32;;;;;;;3.67;1.00;;;12.10;61.60;;;;;;5416320;26;19999;-80
2024/04/22 11:26:58;;;;;;;3.20;0.90;;;12.20;61.40;;;;;;5415989;26;20400;-81
2024/04/22 11:29:25;;;;;;;1.98;0.65;;;12.20;61.20;;;;;;5416052;26;20007;-78
2024/04/22 11:31:58;;;;;;;3.08;0.80;;;12.30;61.80;;;;;;5418996;26;20006;-80
2024/04/22 11:34:24;;;;;;;2.72;0.90;;;12.50;61.60;;;;;;5420008;26;19999;-79
2024/04/22 11:36:57;;;;;;;5.45;0.93;;;12.70;61.80;;;;;;5419917;26;20049;-80
2024/04/22 11:39:28;;;;;;;4.97;0.85;;;12.90;61.90;;;;;;5419513;26;20003;-79
2024/04/22 11:41:57;;;;;;;5.47;0.95;;;13.00;61.30;;;;;;5447697;26;20000;-79
2024/04/22 11:44:26;;;;;;;2.65;0.82;;;13.10;61.50;;;;;;5418593;26;20332;-79
2024/04/22 11:46:51;;;;;;;2.30;0.93;;;13.20;60.50;;;;;;5419675;26;20019;-81
2024/04/22 11:49:19;;;;;;;3.20;0.80;;;13.40;61.00;;;;;;5417830;26;19999;-79
2024/04/22 11:51:46;;;;;;;2.05;0.90;;;13.90;60.70;;;;;;5417625;26;20493;-83
2024/04/22 11:54:11;;;;;;;3.97;0.93;;;14.50;60.90;;;;;;5417690;26;19999;-83
2024/04/22 11:56:40;;;;;;;1.40;0.68;;;15.40;62.10;;;;;;5419310;26;20000;-81
2024/04/22 11:59:05;;;;;;;2.20;0.80;;;16.20;62.20;;;;;;5419696;26;19999;-81
2024/04/22 12:01:31;;;;;;;3.67;1.00;;;16.80;60.90;;;;;;5419416;26;20447;-82
2024/04/22 12:04:00;;;;;;;2.15;0.70;;;17.40;60.10;;;;;;5417402;26;20003;-82
2024/04/22 12:06:27;;;;;;;4.72;0.82;;;17.90;59.00;;;;;;5419466;26;19999;-81
2024/04/22 12:08:53;;;;;;;4.68;0.70;;;18.30;57.70;;;;;;5419359;26;20000;-79
2024/04/22 12:11:18;;;;;;;2.13;0.70;;;18.40;55.30;;;;;;5418927;26;20004;-82
2024/04/22 12:13:44;;;;;;;3.15;0.90;;;18.30;54.20;;;;;;5447451;26;20014;-79
2024/04/22 12:16:10;;;;;;;3.70;1.02;;;18.40;53.00;;;;;;5447309;26;20015;-78
2024/04/22 12:18:35;;;;;;;3.30;0.90;;;18.90;52.10;;;;;;5417543;26;19996;-78
2024/04/22 12:21:01;;;;;;;4.30;0.90;;;19.20;50.90;;;;;;5418980;26;20015;-80
2024/04/22 12:23:27;;;;;;;3.35;0.80;;;19.60;47.50;;;;;;5418269;26;20004;-79
2024/04/22 12:25:56;;;;;;;3.63;0.70;;;20.00;46.00;;;;;;5447148;26;19999;-79
2024/04/22 12:28:22;;;;;;;3.70;0.68;;;20.30;44.10;;;;;;5447180;26;20479;-79
2024/04/22 12:30:50;;;;;;;1.58;0.40;;;20.60;43.70;;;;;;5418760;26;20015;-78
2024/04/22 12:33:20;;;;;;;1.95;0.70;;;21.00;44.40;;;;;;5418852;26;20010;-80
2024/04/22 12:35:46;;;;;;;1.52;0.60;;;21.40;43.60;;;;;;5418954;26;20008;-81
2024/04/22 12:38:11;;;;;;;1.65;0.75;;;21.80;43.40;;;;;;5418807;26;20336;-77
2024/04/22 12:40:37;;;;;;;2.30;0.70;;;21.40;40.30;;;;;;5418437;26;19999;-79
2024/04/22 12:43:04;;;;;;;2.35;0.50;;;20.80;40.20;;;;;;5417585;26;20529;-78
2024/04/22 12:45:30;;;;;;;3.70;0.93;;;20.10;39.70;;;;;;5447046;26;20439;-82
2024/04/22 12:50:44;;;;;;;3.40;0.60;;;18.80;40.00;;;;;;5418071;26;20053;-84
2024/04/22 12:53:14;;;;;;;1.77;0.50;;;18.20;40.00;;;;;;5418487;26;20010;-80
2024/04/22 12:55:39;;;;;;;2.97;0.70;;;17.70;40.20;;;;;;5445820;26;20064;-80
2024/04/22 12:58:05;;;;;;;1.45;0.50;;;17.40;41.40;;;;;;5417794;26;20007;-81
2024/04/22 13:00:31;;;;;;;3.63;0.65;;;17.30;41.50;;;;;;5416710;26;19999;-82